sensor_id;sensor_type;location;lat;lon;timestamp;P1;durP1;ratioP1;P2;durP2;ratioP2
70667;SDS011;58242;51.250;-1.118;2024-03-17T00:01:08;3.30;;;3.10;;
70667;SDS011;58242;51.250;-1.118;2024-03-17T00:03:33;3.20;;;3.00;;
70667;SDS011;58242;51.250;-1.118;2024-03-17T00:05:59;3.83;;;3.50;;
70667;SDS011;58242;51.250;-1.118;2024-03-17T00:08:25;3.70;;;3.47;;
70667;SDS011;58242;51.250;-1.118;2024-03-17T00:10:52;3.70;;;3.47;;
70667;SDS011;58242;51.250;-1.118;2024-03-17T00:13:18;4.00;;;3.70;;
70667;SDS011;58242;51.250;-1.118;2024-03-17T00:15:43;6.13;;;4.88;;
70667;SDS011;58242;51.250;-1.118;2024-03-17T00:18:09;3.75;;;3.47;;
70667;SDS011;58242;51.250;-1.118;2024-03-17T00:20:36;4.65;;;3.90;;
70667;SDS011;58242;51.250;-1.118;2024-03-17T00:23:03;4.55;;;4.18;;
70667;SDS011;58242;51.250;-1.118;2024-03-17T00:25:31;4.25;;;3.85;;
70667;SDS011;58242;51.250;-1.118;2024-03-17T00:27:57;3.28;;;3.08;;
70667;SDS011;58242;51.250;-1.118;2024-03-17T00:30:22;3.55;;;3.22;;
70667;SDS011;58242;51.250;-1.118;2024-03-17T00:32:48;3.25;;;3.05;;
70667;SDS011;58242;51.250;-1.118;2024-03-17T00:35:13;3.70;;;3.40;;
70667;SDS011;58242;51.250;-1.118;2024-03-17T00:37:45;5.65;;;4.22;;
70667;SDS011;58242;51.250;-1.118;2024-03-17T00:40:11;4.13;;;3.50;;
70667;SDS011;58242;51.250;-1.118;2024-03-17T00:42:36;4.03;;;3.72;;
70667;SDS011;58242;51.250;-1.118;2024-03-17T00:45:02;3.67;;;3.33;;
70667;SDS011;58242;51.250;-1.118;2024-03-17T00:47:30;3.60;;;3.30;;
70667;SDS011;58242;51.250;-1.118;2024-03-17T00:49:55;3.78;;;3.38;;
70667;SDS011;58242;51.250;-1.118;2024-03-17T00:52:21;3.60;;;3.30;;
70667;SDS011;58242;51.250;-1.118;2024-03-17T00:54:46;3.67;;;3.35;;
70667;SDS011;58242;51.250;-1.118;2024-03-17T00:57:13;3.55;;;3.25;;
70667;SDS011;58242;51.250;-1.118;2024-03-17T00:59:38;3.97;;;3.67;;
70667;SDS011;58242;51.250;-1.118;2024-03-17T01:02:04;3.83;;;3.53;;
70667;SDS011;58242;51.250;-1.118;2024-03-17T01:04:29;3.70;;;3.40;;
70667;SDS011;58242;51.250;-1.118;2024-03-17T01:06:58;3.50;;;3.20;;
70667;SDS011;58242;51.250;-1.118;2024-03-17T01:09:24;4.00;;;3.70;;
70667;SDS011;58242;51.250;-1.118;2024-03-17T01:11:49;4.03;;;3.67;;
70667;SDS011;58242;51.250;-1.118;2024-03-17T01:14:15;4.05;;;3.67;;
70667;SDS011;58242;51.250;-1.118;2024-03-17T01:16:40;6.25;;;4.30;;
70667;SDS011;58242;51.250;-1.118;2024-03-17T01:19:06;4.10;;;3.67;;
70667;SDS011;58242;51.250;-1.118;2024-03-17T01:21:31;3.35;;;3.15;;
70667;SDS011;58242;51.250;-1.118;2024-03-17T01:23:56;3.33;;;3.13;;
70667;SDS011;58242;51.250;-1.118;2024-03-17T01:26:22;3.40;;;3.20;;
70667;SDS011;58242;51.250;-1.118;2024-03-17T01:28:49;3.70;;;3.40;;
70667;SDS011;58242;51.250;-1.118;2024-03-17T01:31:14;4.22;;;3.78;;
70667;SDS011;58242;51.250;-1.118;2024-03-17T01:33:40;3.70;;;3.45;;
70667;SDS011;58242;51.250;-1.118;2024-03-17T01:36:05;4.43;;;3.40;;
70667;SDS011;58242;51.250;-1.118;2024-03-17T01:38:31;4.03;;;3.72;;
70667;SDS011;58242;51.250;-1.118;2024-03-17T01:40:57;3.90;;;3.60;;
70667;SDS011;58242;51.250;-1.118;2024-03-17T01:43:23;3.50;;;3.30;;
70667;SDS011;58242;51.250;-1.118;2024-03-17T01:45:48;4.25;;;3.95;;
70667;SDS011;58242;51.250;-1.118;2024-03-17T01:48:14;3.45;;;3.25;;
70667;SDS011;58242;51.250;-1.118;2024-03-17T01:50:42;4.47;;;4.18;;
70667;SDS011;58242;51.250;-1.118;2024-03-17T01:53:09;4.78;;;4.38;;
70667;SDS011;58242;51.250;-1.118;2024-03-17T01:55:36;5.50;;;4.47;;
70667;SDS011;58242;51.250;-1.118;2024-03-17T01:58:03;4.25;;;3.95;;
70667;SDS011;58242;51.250;-1.118;2024-03-17T02:00:32;4.10;;;3.80;;
70667;SDS011;58242;51.250;-1.118;2024-03-17T02:02:59;3.78;;;3.58;;
70667;SDS011;58242;51.250;-1.118;2024-03-17T02:05:25;4.43;;;4.13;;
70667;SDS011;58242;51.250;-1.118;2024-03-17T02:07:50;4.00;;;3.70;;
70667;SDS011;58242;51.250;-1.118;2024-03-17T02:10:15;4.28;;;3.70;;
70667;SDS011;58242;51.250;-1.118;2024-03-17T02:12:41;4.55;;;4.15;;
70667;SDS011;58242;51.250;-1.118;2024-03-17T02:15:06;4.72;;;4.32;;
70667;SDS011;58242;51.250;-1.118;2024-03-17T02:17:32;4.25;;;4.00;;
70667;SDS011;58242;51.250;-1.118;2024-03-17T02:19:58;4.13;;;3.55;;
70667;SDS011;58242;51.250;-1.118;2024-03-17T02:22:25;4.25;;;3.38;;
70667;SDS011;58242;51.250;-1.118;2024-03-17T02:24:52;4.10;;;3.80;;
70667;SDS011;58242;51.250;-1.118;2024-03-17T02:27:18;4.28;;;3.97;;
70667;SDS011;58242;51.250;-1.118;2024-03-17T02:29:44;4.38;;;3.97;;
70667;SDS011;58242;51.250;-1.118;2024-03-17T02:32:10;3.97;;;3.60;;
70667;SDS011;58242;51.250;-1.118;2024-03-17T02:34:36;3.78;;;3.47;;
70667;SDS011;58242;51.250;-1.118;2024-03-17T02:37:03;4.20;;;3.80;;
70667;SDS011;58242;51.250;-1.118;2024-03-17T02:39:29;6.65;;;4.18;;
70667;SDS011;58242;51.250;-1.118;2024-03-17T02:41:59;4.00;;;3.58;;
70667;SDS011;58242;51.250;-1.118;2024-03-17T02:44:35;4.15;;;3.75;;
70667;SDS011;58242;51.250;-1.118;2024-03-17T02:47:02;3.42;;;3.22;;
70667;SDS011;58242;51.250;-1.118;2024-03-17T02:49:29;3.78;;;3.47;;
70667;SDS011;58242;51.250;-1.118;2024-03-17T02:52:05;3.88;;;3.55;;
70667;SDS011;58242;51.250;-1.118;2024-03-17T02:54:32;4.00;;;3.70;;
70667;SDS011;58242;51.250;-1.118;2024-03-17T02:56:58;6.82;;;3.65;;
70667;SDS011;58242;51.250;-1.118;2024-03-17T02:59:23;3.88;;;3.58;;
70667;SDS011;58242;51.250;-1.118;2024-03-17T03:01:49;3.65;;;3.35;;
70667;SDS011;58242;51.250;-1.118;2024-03-17T03:04:14;4.97;;;3.90;;
70667;SDS011;58242;51.250;-1.118;2024-03-17T03:06:40;3.67;;;3.38;;
70667;SDS011;58242;51.250;-1.118;2024-03-17T03:09:06;3.15;;;3.00;;
70667;SDS011;58242;51.250;-1.118;2024-03-17T03:11:37;3.58;;;3.30;;
70667;SDS011;58242;51.250;-1.118;2024-03-17T03:14:03;3.92;;;3.03;;
70667;SDS011;58242;51.250;-1.118;2024-03-17T03:16:28;4.63;;;3.22;;
70667;SDS011;58242;51.250;-1.118;2024-03-17T03:18:53;4.10;;;3.78;;
70667;SDS011;58242;51.250;-1.118;2024-03-17T03:21:19;3.55;;;3.33;;
70667;SDS011;58242;51.250;-1.118;2024-03-17T03:23:44;3.60;;;3.22;;
70667;SDS011;58242;51.250;-1.118;2024-03-17T03:26:10;3.90;;;3.28;;
70667;SDS011;58242;51.250;-1.118;2024-03-17T03:28:35;4.53;;;3.60;;
70667;SDS011;58242;51.250;-1.118;2024-03-17T03:31:00;5.22;;;2.92;;
70667;SDS011;58242;51.250;-1.118;2024-03-17T03:33:27;3.67;;;3.33;;
70667;SDS011;58242;51.250;-1.118;2024-03-17T03:35:52;3.55;;;3.25;;
70667;SDS011;58242;51.250;-1.118;2024-03-17T03:38:18;3.58;;;3.28;;
70667;SDS011;58242;51.250;-1.118;2024-03-17T03:40:44;3.30;;;3.10;;
70667;SDS011;58242;51.250;-1.118;2024-03-17T03:43:10;3.45;;;3.15;;
70667;SDS011;58242;51.250;-1.118;2024-03-17T03:45:36;3.70;;;3.40;;
70667;SDS011;58242;51.250;-1.118;2024-03-17T03:48:02;4.57;;;3.22;;
70667;SDS011;58242;51.250;-1.118;2024-03-17T03:50:28;3.50;;;3.20;;
70667;SDS011;58242;51.250;-1.118;2024-03-17T03:52:53;3.60;;;3.30;;
70667;SDS011;58242;51.250;-1.118;2024-03-17T03:55:19;3.40;;;3.20;;
70667;SDS011;58242;51.250;-1.118;2024-03-17T03:57:45;3.78;;;3.47;;
70667;SDS011;58242;51.250;-1.118;2024-03-17T04:00:15;5.18;;;3.13;;
70667;SDS011;58242;51.250;-1.118;2024-03-17T04:02:41;3.97;;;3.00;;
70667;SDS011;58242;51.250;-1.118;2024-03-17T04:05:07;4.65;;;3.35;;
70667;SDS011;58242;51.250;-1.118;2024-03-17T04:07:33;3.53;;;3.20;;
70667;SDS011;58242;51.250;-1.118;2024-03-17T04:09:59;3.20;;;2.90;;
70667;SDS011;58242;51.250;-1.118;2024-03-17T04:12:25;5.80;;;3.22;;
70667;SDS011;58242;51.250;-1.118;2024-03-17T04:14:51;3.00;;;2.80;;
70667;SDS011;58242;51.250;-1.118;2024-03-17T04:17:18;3.38;;;3.15;;
70667;SDS011;58242;51.250;-1.118;2024-03-17T04:19:46;3.83;;;3.08;;
70667;SDS011;58242;51.250;-1.118;2024-03-17T04:22:15;3.28;;;3.08;;
70667;SDS011;58242;51.250;-1.118;2024-03-17T04:24:44;2.92;;;2.72;;
70667;SDS011;58242;51.250;-1.118;2024-03-17T04:27:09;3.40;;;3.10;;
70667;SDS011;58242;51.250;-1.118;2024-03-17T04:29:35;5.22;;;3.03;;
70667;SDS011;58242;51.250;-1.118;2024-03-17T04:32:00;3.00;;;2.80;;
70667;SDS011;58242;51.250;-1.118;2024-03-17T04:34:26;4.53;;;3.53;;
70667;SDS011;58242;51.250;-1.118;2024-03-17T04:36:52;4.53;;;3.40;;
70667;SDS011;58242;51.250;-1.118;2024-03-17T04:39:18;4.28;;;3.42;;
70667;SDS011;58242;51.250;-1.118;2024-03-17T04:41:44;3.33;;;3.05;;
70667;SDS011;58242;51.250;-1.118;2024-03-17T04:44:10;3.45;;;3.15;;
70667;SDS011;58242;51.250;-1.118;2024-03-17T04:46:35;3.78;;;3.10;;
70667;SDS011;58242;51.250;-1.118;2024-03-17T04:49:01;3.90;;;3.10;;
70667;SDS011;58242;51.250;-1.118;2024-03-17T04:51:28;3.55;;;3.30;;
70667;SDS011;58242;51.250;-1.118;2024-03-17T04:53:54;3.50;;;3.30;;
70667;SDS011;58242;51.250;-1.118;2024-03-17T04:56:20;3.45;;;3.15;;
70667;SDS011;58242;51.250;-1.118;2024-03-17T04:58:46;5.40;;;3.80;;
70667;SDS011;58242;51.250;-1.118;2024-03-17T05:01:11;5.30;;;4.30;;
70667;SDS011;58242;51.250;-1.118;2024-03-17T05:03:37;4.40;;;4.07;;
70667;SDS011;58242;51.250;-1.118;2024-03-17T05:06:04;7.03;;;4.22;;
70667;SDS011;58242;51.250;-1.118;2024-03-17T05:08:30;4.38;;;4.13;;
70667;SDS011;58242;51.250;-1.118;2024-03-17T05:10:59;8.38;;;4.50;;
70667;SDS011;58242;51.250;-1.118;2024-03-17T05:15:52;4.47;;;4.18;;
70667;SDS011;58242;51.250;-1.118;2024-03-17T05:18:17;4.90;;;4.53;;
70667;SDS011;58242;51.250;-1.118;2024-03-17T05:20:43;4.68;;;4.22;;
70667;SDS011;58242;51.250;-1.118;2024-03-17T05:23:08;4.47;;;4.18;;
70667;SDS011;58242;51.250;-1.118;2024-03-17T05:25:33;9.10;;;5.57;;
70667;SDS011;58242;51.250;-1.118;2024-03-17T05:28:01;6.10;;;4.40;;
70667;SDS011;58242;51.250;-1.118;2024-03-17T05:30:27;4.50;;;4.15;;
70667;SDS011;58242;51.250;-1.118;2024-03-17T05:32:52;4.60;;;4.30;;
70667;SDS011;58242;51.250;-1.118;2024-03-17T05:35:18;4.20;;;4.00;;
70667;SDS011;58242;51.250;-1.118;2024-03-17T05:37:43;4.50;;;4.25;;
70667;SDS011;58242;51.250;-1.118;2024-03-17T05:40:09;6.57;;;4.90;;
70667;SDS011;58242;51.250;-1.118;2024-03-17T05:42:37;4.95;;;4.55;;
70667;SDS011;58242;51.250;-1.118;2024-03-17T05:45:03;4.15;;;3.75;;
70667;SDS011;58242;51.250;-1.118;2024-03-17T05:47:28;4.25;;;3.95;;
70667;SDS011;58242;51.250;-1.118;2024-03-17T05:49:54;3.60;;;3.40;;
70667;SDS011;58242;51.250;-1.118;2024-03-17T05:52:20;3.97;;;3.50;;
70667;SDS011;58242;51.250;-1.118;2024-03-17T05:54:46;3.45;;;3.25;;
70667;SDS011;58242;51.250;-1.118;2024-03-17T05:57:12;4.03;;;3.70;;
70667;SDS011;58242;51.250;-1.118;2024-03-17T05:59:39;3.72;;;3.53;;
70667;SDS011;58242;51.250;-1.118;2024-03-17T06:02:04;3.92;;;3.70;;
70667;SDS011;58242;51.250;-1.118;2024-03-17T06:04:29;3.90;;;3.60;;
70667;SDS011;58242;51.250;-1.118;2024-03-17T06:06:55;4.05;;;3.53;;
70667;SDS011;58242;51.250;-1.118;2024-03-17T06:09:20;3.80;;;3.50;;
70667;SDS011;58242;51.250;-1.118;2024-03-17T06:11:46;3.47;;;3.33;;
70667;SDS011;58242;51.250;-1.118;2024-03-17T06:14:11;3.60;;;3.40;;
70667;SDS011;58242;51.250;-1.118;2024-03-17T06:16:38;3.63;;;3.42;;
70667;SDS011;58242;51.250;-1.118;2024-03-17T06:19:03;4.30;;;3.50;;
70667;SDS011;58242;51.250;-1.118;2024-03-17T06:21:28;3.75;;;3.45;;
70667;SDS011;58242;51.250;-1.118;2024-03-17T06:23:54;3.72;;;3.45;;
70667;SDS011;58242;51.250;-1.118;2024-03-17T06:26:19;3.15;;;2.90;;
70667;SDS011;58242;51.250;-1.118;2024-03-17T06:28:45;3.50;;;3.28;;
70667;SDS011;58242;51.250;-1.118;2024-03-17T06:31:11;4.00;;;3.55;;
70667;SDS011;58242;51.250;-1.118;2024-03-17T06:33:36;3.00;;;2.90;;
70667;SDS011;58242;51.250;-1.118;2024-03-17T06:36:02;3.15;;;2.95;;
70667;SDS011;58242;51.250;-1.118;2024-03-17T06:38:32;2.85;;;2.75;;
70667;SDS011;58242;51.250;-1.118;2024-03-17T06:40:57;3.08;;;2.90;;
70667;SDS011;58242;51.250;-1.118;2024-03-17T06:43:23;2.70;;;2.60;;
70667;SDS011;58242;51.250;-1.118;2024-03-17T06:45:57;2.80;;;2.70;;
70667;SDS011;58242;51.250;-1.118;2024-03-17T06:48:23;2.40;;;2.30;;
70667;SDS011;58242;51.250;-1.118;2024-03-17T06:50:49;3.53;;;2.70;;
70667;SDS011;58242;51.250;-1.118;2024-03-17T06:53:17;2.60;;;2.40;;
70667;SDS011;58242;51.250;-1.118;2024-03-17T06:55:43;2.65;;;2.53;;
70667;SDS011;58242;51.250;-1.118;2024-03-17T06:58:11;2.80;;;2.70;;
70667;SDS011;58242;51.250;-1.118;2024-03-17T07:00:36;2.33;;;2.30;;
70667;SDS011;58242;51.250;-1.118;2024-03-17T07:03:01;2.10;;;2.10;;
70667;SDS011;58242;51.250;-1.118;2024-03-17T07:05:27;2.83;;;2.72;;
70667;SDS011;58242;51.250;-1.118;2024-03-17T07:07:55;2.80;;;2.70;;
70667;SDS011;58242;51.250;-1.118;2024-03-17T07:10:20;2.65;;;2.55;;
70667;SDS011;58242;51.250;-1.118;2024-03-17T07:12:45;2.80;;;2.70;;
70667;SDS011;58242;51.250;-1.118;2024-03-17T07:15:11;2.70;;;2.60;;
70667;SDS011;58242;51.250;-1.118;2024-03-17T07:17:36;3.10;;;2.90;;
70667;SDS011;58242;51.250;-1.118;2024-03-17T07:20:02;2.70;;;2.60;;
70667;SDS011;58242;51.250;-1.118;2024-03-17T07:22:28;2.90;;;2.80;;
70667;SDS011;58242;51.250;-1.118;2024-03-17T07:24:54;2.38;;;2.28;;
70667;SDS011;58242;51.250;-1.118;2024-03-17T07:27:29;2.47;;;2.38;;
70667;SDS011;58242;51.250;-1.118;2024-03-17T07:29:54;2.20;;;2.20;;
70667;SDS011;58242;51.250;-1.118;2024-03-17T07:32:20;2.20;;;2.10;;
70667;SDS011;58242;51.250;-1.118;2024-03-17T07:34:45;2.20;;;2.10;;
70667;SDS011;58242;51.250;-1.118;2024-03-17T07:37:11;2.20;;;2.20;;
70667;SDS011;58242;51.250;-1.118;2024-03-17T07:39:36;2.15;;;2.15;;
70667;SDS011;58242;51.250;-1.118;2024-03-17T07:42:01;2.13;;;2.03;;
70667;SDS011;58242;51.250;-1.118;2024-03-17T07:44:28;2.40;;;2.30;;
70667;SDS011;58242;51.250;-1.118;2024-03-17T07:46:58;1.98;;;1.98;;
70667;SDS011;58242;51.250;-1.118;2024-03-17T07:49:23;2.20;;;2.10;;
70667;SDS011;58242;51.250;-1.118;2024-03-17T07:51:49;2.00;;;2.00;;
70667;SDS011;58242;51.250;-1.118;2024-03-17T07:54:14;2.30;;;2.20;;
70667;SDS011;58242;51.250;-1.118;2024-03-17T07:56:39;2.45;;;2.38;;
70667;SDS011;58242;51.250;-1.118;2024-03-17T07:59:04;2.40;;;2.30;;
70667;SDS011;58242;51.250;-1.118;2024-03-17T08:01:36;2.20;;;2.17;;
70667;SDS011;58242;51.250;-1.118;2024-03-17T08:04:02;2.20;;;2.10;;
70667;SDS011;58242;51.250;-1.118;2024-03-17T08:06:28;2.40;;;2.30;;
70667;SDS011;58242;51.250;-1.118;2024-03-17T08:08:54;2.25;;;2.17;;
70667;SDS011;58242;51.250;-1.118;2024-03-17T08:11:20;2.42;;;2.22;;
70667;SDS011;58242;51.250;-1.118;2024-03-17T08:13:45;1.70;;;1.70;;
70667;SDS011;58242;51.250;-1.118;2024-03-17T08:16:10;2.03;;;2.03;;
70667;SDS011;58242;51.250;-1.118;2024-03-17T08:18:36;1.80;;;1.80;;
70667;SDS011;58242;51.250;-1.118;2024-03-17T08:21:01;2.30;;;2.22;;
70667;SDS011;58242;51.250;-1.118;2024-03-17T08:23:31;2.00;;;2.00;;
70667;SDS011;58242;51.250;-1.118;2024-03-17T08:26:04;1.90;;;1.90;;
70667;SDS011;58242;51.250;-1.118;2024-03-17T08:28:29;2.03;;;2.03;;
70667;SDS011;58242;51.250;-1.118;2024-03-17T08:30:55;2.08;;;2.08;;
70667;SDS011;58242;51.250;-1.118;2024-03-17T08:33:22;1.80;;;1.80;;
70667;SDS011;58242;51.250;-1.118;2024-03-17T08:38:24;1.60;;;1.60;;
70667;SDS011;58242;51.250;-1.118;2024-03-17T08:40:51;2.10;;;2.10;;
70667;SDS011;58242;51.250;-1.118;2024-03-17T08:43:17;2.00;;;2.00;;
70667;SDS011;58242;51.250;-1.118;2024-03-17T08:45:42;1.80;;;1.80;;
70667;SDS011;58242;51.250;-1.118;2024-03-17T08:48:08;1.75;;;1.75;;
70667;SDS011;58242;51.250;-1.118;2024-03-17T08:50:35;1.85;;;1.85;;
70667;SDS011;58242;51.250;-1.118;2024-03-17T08:53:00;2.00;;;2.00;;
70667;SDS011;58242;51.250;-1.118;2024-03-17T08:55:26;1.60;;;1.60;;
70667;SDS011;58242;51.250;-1.118;2024-03-17T08:57:51;2.00;;;2.00;;
70667;SDS011;58242;51.250;-1.118;2024-03-17T09:00:16;1.85;;;1.75;;
70667;SDS011;58242;51.250;-1.118;2024-03-17T09:02:42;2.00;;;2.00;;
70667;SDS011;58242;51.250;-1.118;2024-03-17T09:05:07;2.05;;;2.00;;
70667;SDS011;58242;51.250;-1.118;2024-03-17T09:07:33;1.92;;;1.92;;
70667;SDS011;58242;51.250;-1.118;2024-03-17T09:09:58;1.80;;;1.80;;
70667;SDS011;58242;51.250;-1.118;2024-03-17T09:12:24;2.03;;;1.92;;
70667;SDS011;58242;51.250;-1.118;2024-03-17T09:14:50;2.00;;;2.00;;
70667;SDS011;58242;51.250;-1.118;2024-03-17T09:17:16;2.40;;;2.30;;
70667;SDS011;58242;51.250;-1.118;2024-03-17T09:19:44;2.00;;;2.00;;
70667;SDS011;58242;51.250;-1.118;2024-03-17T09:22:10;2.47;;;2.40;;
70667;SDS011;58242;51.250;-1.118;2024-03-17T09:24:35;2.22;;;2.22;;
70667;SDS011;58242;51.250;-1.118;2024-03-17T09:27:01;2.80;;;2.40;;
70667;SDS011;58242;51.250;-1.118;2024-03-17T09:29:26;2.10;;;2.10;;
70667;SDS011;58242;51.250;-1.118;2024-03-17T09:31:51;2.38;;;2.38;;
70667;SDS011;58242;51.250;-1.118;2024-03-17T09:34:17;2.47;;;2.38;;
70667;SDS011;58242;51.250;-1.118;2024-03-17T09:36:43;2.42;;;2.33;;
70667;SDS011;58242;51.250;-1.118;2024-03-17T09:39:09;1.92;;;1.92;;
70667;SDS011;58242;51.250;-1.118;2024-03-17T09:41:36;2.35;;;2.25;;
70667;SDS011;58242;51.250;-1.118;2024-03-17T09:44:03;2.40;;;2.30;;
70667;SDS011;58242;51.250;-1.118;2024-03-17T09:46:34;2.20;;;2.20;;
70667;SDS011;58242;51.250;-1.118;2024-03-17T09:48:59;2.13;;;2.03;;
70667;SDS011;58242;51.250;-1.118;2024-03-17T09:51:25;2.60;;;2.50;;
70667;SDS011;58242;51.250;-1.118;2024-03-17T09:53:51;2.67;;;2.50;;
70667;SDS011;58242;51.250;-1.118;2024-03-17T09:56:17;2.45;;;2.35;;
70667;SDS011;58242;51.250;-1.118;2024-03-17T09:58:47;2.30;;;2.10;;
70667;SDS011;58242;51.250;-1.118;2024-03-17T10:01:14;2.20;;;2.10;;
70667;SDS011;58242;51.250;-1.118;2024-03-17T10:03:52;2.47;;;2.28;;
70667;SDS011;58242;51.250;-1.118;2024-03-17T10:06:20;2.10;;;2.03;;
70667;SDS011;58242;51.250;-1.118;2024-03-17T10:08:52;2.58;;;2.47;;
70667;SDS011;58242;51.250;-1.118;2024-03-17T10:11:20;2.70;;;2.60;;
70667;SDS011;58242;51.250;-1.118;2024-03-17T10:13:58;2.70;;;2.60;;
70667;SDS011;58242;51.250;-1.118;2024-03-17T10:16:28;2.80;;;2.70;;
70667;SDS011;58242;51.250;-1.118;2024-03-17T10:19:05;2.78;;;2.47;;
70667;SDS011;58242;51.250;-1.118;2024-03-17T10:24:12;2.15;;;2.15;;
70667;SDS011;58242;51.250;-1.118;2024-03-17T10:26:48;2.92;;;2.72;;
70667;SDS011;58242;51.250;-1.118;2024-03-17T10:29:37;2.63;;;2.53;;
70667;SDS011;58242;51.250;-1.118;2024-03-17T10:32:14;2.63;;;2.45;;
70667;SDS011;58242;51.250;-1.118;2024-03-17T10:34:43;2.65;;;2.45;;
70667;SDS011;58242;51.250;-1.118;2024-03-17T10:37:09;2.15;;;2.13;;
70667;SDS011;58242;51.250;-1.118;2024-03-17T10:39:38;2.50;;;2.40;;
70667;SDS011;58242;51.250;-1.118;2024-03-17T10:42:05;2.65;;;2.50;;
70667;SDS011;58242;51.250;-1.118;2024-03-17T10:44:31;3.00;;;2.88;;
70667;SDS011;58242;51.250;-1.118;2024-03-17T10:46:58;2.28;;;2.17;;
70667;SDS011;58242;51.250;-1.118;2024-03-17T10:49:35;2.97;;;2.67;;
70667;SDS011;58242;51.250;-1.118;2024-03-17T10:52:03;2.10;;;2.08;;
70667;SDS011;58242;51.250;-1.118;2024-03-17T10:54:30;3.10;;;3.00;;
70667;SDS011;58242;51.250;-1.118;2024-03-17T10:56:57;2.90;;;2.80;;
70667;SDS011;58242;51.250;-1.118;2024-03-17T10:59:40;2.60;;;2.50;;
70667;SDS011;58242;51.250;-1.118;2024-03-17T11:04:49;2.67;;;2.55;;
70667;SDS011;58242;51.250;-1.118;2024-03-17T11:07:16;2.60;;;2.50;;
70667;SDS011;58242;51.250;-1.118;2024-03-17T11:09:44;2.78;;;2.58;;
70667;SDS011;58242;51.250;-1.118;2024-03-17T11:12:58;2.77;;;2.67;;
70667;SDS011;58242;51.250;-1.118;2024-03-17T11:17:54;2.33;;;2.22;;
70667;SDS011;58242;51.250;-1.118;2024-03-17T11:22:50;2.10;;;2.00;;
70667;SDS011;58242;51.250;-1.118;2024-03-17T11:27:57;2.90;;;2.70;;
70667;SDS011;58242;51.250;-1.118;2024-03-17T11:38:54;3.15;;;2.90;;
70667;SDS011;58242;51.250;-1.118;2024-03-17T11:49:21;2.25;;;2.15;;
70667;SDS011;58242;51.250;-1.118;2024-03-17T11:51:48;2.90;;;2.80;;
70667;SDS011;58242;51.250;-1.118;2024-03-17T11:54:25;2.60;;;2.50;;
70667;SDS011;58242;51.250;-1.118;2024-03-17T11:56:55;2.63;;;2.42;;
70667;SDS011;58242;51.250;-1.118;2024-03-17T11:59:22;2.30;;;2.20;;
70667;SDS011;58242;51.250;-1.118;2024-03-17T12:01:48;2.00;;;2.00;;
70667;SDS011;58242;51.250;-1.118;2024-03-17T12:04:14;2.00;;;1.98;;
70667;SDS011;58242;51.250;-1.118;2024-03-17T12:06:44;1.98;;;1.90;;
70667;SDS011;58242;51.250;-1.118;2024-03-17T12:11:45;2.03;;;1.92;;
70667;SDS011;58242;51.250;-1.118;2024-03-17T12:14:15;2.20;;;2.10;;
70667;SDS011;58242;51.250;-1.118;2024-03-17T12:16:49;1.80;;;1.80;;
70667;SDS011;58242;51.250;-1.118;2024-03-17T12:19:16;2.13;;;2.13;;
70667;SDS011;58242;51.250;-1.118;2024-03-17T12:21:43;2.50;;;2.40;;
70667;SDS011;58242;51.250;-1.118;2024-03-17T12:24:14;2.13;;;2.03;;
70667;SDS011;58242;51.250;-1.118;2024-03-17T12:26:42;2.30;;;2.20;;
70667;SDS011;58242;51.250;-1.118;2024-03-17T12:31:59;2.38;;;2.28;;
70667;SDS011;58242;51.250;-1.118;2024-03-17T12:34:28;2.40;;;2.30;;
70667;SDS011;58242;51.250;-1.118;2024-03-17T12:36:55;2.78;;;2.58;;
70667;SDS011;58242;51.250;-1.118;2024-03-17T12:42:05;1.80;;;1.80;;
70667;SDS011;58242;51.250;-1.118;2024-03-17T12:44:37;2.33;;;2.25;;
70667;SDS011;58242;51.250;-1.118;2024-03-17T12:47:07;1.90;;;1.80;;
70667;SDS011;58242;51.250;-1.118;2024-03-17T12:49:33;1.95;;;1.85;;
70667;SDS011;58242;51.250;-1.118;2024-03-17T12:52:01;1.85;;;1.75;;
70667;SDS011;58242;51.250;-1.118;2024-03-17T12:54:27;2.50;;;2.40;;
70667;SDS011;58242;51.250;-1.118;2024-03-17T12:57:04;2.80;;;2.70;;
70667;SDS011;58242;51.250;-1.118;2024-03-17T12:59:49;2.38;;;2.28;;
70667;SDS011;58242;51.250;-1.118;2024-03-17T13:02:33;2.78;;;2.58;;
70667;SDS011;58242;51.250;-1.118;2024-03-17T13:05:15;2.38;;;2.28;;
70667;SDS011;58242;51.250;-1.118;2024-03-17T13:07:44;2.50;;;2.40;;
70667;SDS011;58242;51.250;-1.118;2024-03-17T13:10:12;2.73;;;2.53;;
70667;SDS011;58242;51.250;-1.118;2024-03-17T13:12:42;2.92;;;2.72;;
70667;SDS011;58242;51.250;-1.118;2024-03-17T13:15:08;2.97;;;2.78;;
70667;SDS011;58242;51.250;-1.118;2024-03-17T13:17:37;2.65;;;2.40;;
70667;SDS011;58242;51.250;-1.118;2024-03-17T13:20:02;2.75;;;2.65;;
70667;SDS011;58242;51.250;-1.118;2024-03-17T13:22:29;2.20;;;2.10;;
70667;SDS011;58242;51.250;-1.118;2024-03-17T13:24:54;2.65;;;2.25;;
70667;SDS011;58242;51.250;-1.118;2024-03-17T13:27:19;2.20;;;2.10;;
70667;SDS011;58242;51.250;-1.118;2024-03-17T13:29:48;2.85;;;2.65;;
70667;SDS011;58242;51.250;-1.118;2024-03-17T13:32:14;2.85;;;2.42;;
70667;SDS011;58242;51.250;-1.118;2024-03-17T13:34:40;2.40;;;2.30;;
70667;SDS011;58242;51.250;-1.118;2024-03-17T13:37:06;2.42;;;2.22;;
70667;SDS011;58242;51.250;-1.118;2024-03-17T13:39:32;2.47;;;2.38;;
70667;SDS011;58242;51.250;-1.118;2024-03-17T13:41:59;2.50;;;2.40;;
70667;SDS011;58242;51.250;-1.118;2024-03-17T13:44:31;2.38;;;2.17;;
70667;SDS011;58242;51.250;-1.118;2024-03-17T13:46:57;2.33;;;2.22;;
70667;SDS011;58242;51.250;-1.118;2024-03-17T13:49:23;2.20;;;2.10;;
70667;SDS011;58242;51.250;-1.118;2024-03-17T13:51:50;2.42;;;2.33;;
70667;SDS011;58242;51.250;-1.118;2024-03-17T13:54:15;2.17;;;1.98;;
70667;SDS011;58242;51.250;-1.118;2024-03-17T13:56:40;2.40;;;2.20;;
70667;SDS011;58242;51.250;-1.118;2024-03-17T13:59:06;2.13;;;2.03;;
70667;SDS011;58242;51.250;-1.118;2024-03-17T14:01:31;2.40;;;2.20;;
70667;SDS011;58242;51.250;-1.118;2024-03-17T14:03:58;2.40;;;2.17;;
70667;SDS011;58242;51.250;-1.118;2024-03-17T14:06:23;2.28;;;2.10;;
70667;SDS011;58242;51.250;-1.118;2024-03-17T14:08:49;1.85;;;1.75;;
70667;SDS011;58242;51.250;-1.118;2024-03-17T14:11:14;2.28;;;2.10;;
70667;SDS011;58242;51.250;-1.118;2024-03-17T14:13:40;3.28;;;2.10;;
70667;SDS011;58242;51.250;-1.118;2024-03-17T14:16:05;2.05;;;1.90;;
70667;SDS011;58242;51.250;-1.118;2024-03-17T14:18:31;1.73;;;1.70;;
70667;SDS011;58242;51.250;-1.118;2024-03-17T14:20:58;1.60;;;1.60;;
70667;SDS011;58242;51.250;-1.118;2024-03-17T14:23:23;2.10;;;1.90;;
70667;SDS011;58242;51.250;-1.118;2024-03-17T14:25:49;1.70;;;1.70;;
70667;SDS011;58242;51.250;-1.118;2024-03-17T14:28:15;2.20;;;2.08;;
70667;SDS011;58242;51.250;-1.118;2024-03-17T14:30:41;2.38;;;2.25;;
70667;SDS011;58242;51.250;-1.118;2024-03-17T14:33:06;1.80;;;1.70;;
70667;SDS011;58242;51.250;-1.118;2024-03-17T14:35:32;2.03;;;1.80;;
70667;SDS011;58242;51.250;-1.118;2024-03-17T14:37:58;2.00;;;1.90;;
70667;SDS011;58242;51.250;-1.118;2024-03-17T14:40:24;1.80;;;1.80;;
70667;SDS011;58242;51.250;-1.118;2024-03-17T14:42:53;2.10;;;2.00;;
70667;SDS011;58242;51.250;-1.118;2024-03-17T14:45:20;2.00;;;1.90;;
70667;SDS011;58242;51.250;-1.118;2024-03-17T14:47:48;2.45;;;2.35;;
70667;SDS011;58242;51.250;-1.118;2024-03-17T14:50:14;2.72;;;2.53;;
70667;SDS011;58242;51.250;-1.118;2024-03-17T14:52:41;2.25;;;2.15;;
70667;SDS011;58242;51.250;-1.118;2024-03-17T14:55:07;2.15;;;2.05;;
70667;SDS011;58242;51.250;-1.118;2024-03-17T14:57:39;2.13;;;2.03;;
70667;SDS011;58242;51.250;-1.118;2024-03-17T15:02:39;2.40;;;2.30;;
70667;SDS011;58242;51.250;-1.118;2024-03-17T15:05:06;2.33;;;2.08;;
70667;SDS011;58242;51.250;-1.118;2024-03-17T15:07:32;2.40;;;2.30;;
70667;SDS011;58242;51.250;-1.118;2024-03-17T15:09:57;2.53;;;2.33;;
70667;SDS011;58242;51.250;-1.118;2024-03-17T15:12:23;2.00;;;1.90;;
70667;SDS011;58242;51.250;-1.118;2024-03-17T15:14:48;2.47;;;2.30;;
70667;SDS011;58242;51.250;-1.118;2024-03-17T15:17:13;2.45;;;2.25;;